Terminal Aerodrome Forecast
Issued by NWS Spokane, WA

Home | Current Version | Previous Version | Text Only | Print | Product List | Glossary On
Versions: 1 2 3 4 5 6 7 8 9 10 11 12 13 14 15 16 17 18 19 20 21 22 23 24 25 26 27 28 29 30 31 32 33 34 35 36 37 38 39
000
FTUS46 KOTX 240538
TAFLWS
TAF
KLWS 240538Z 2406/2506 13003KT P6SM SKC
     FM241000 15004KT 6SM BCFG FEW001 SCT030
     FM242100 12006KT P6SM SCT080 OVC150=

USA.gov is the U.S. government's official web portal to all federal, state and local government web resources and services.